• Join FlightAware (Why Join?)
  • Login
  • US Flag 
02:57PM EDT


 

Airport Tracker/Info


-or-


 

Live Flight TrackerFlight Track Log ✈ N850ME ✈ 22-Jul-2013 ✈ KDEN - KGJT

Flight Track Log - Related Links

Times and Time Zones

All times are in EDT time to prevent confusion due to time zone crossing. See the N850ME flight status page for this flight to view local times or setup timezone preferences in your user account.

Time Position Orientation Groundspeed Altitude Reporting Facility
EDT Latitude Longitude Course Direction KTS MPH feet Rate Location/Type
11:50AM 39.9333 -104.6833 11° North 209 241 6,800  Level Denver TRACON
11:51AM 40.0000 -104.6667 11° North 240 276 9,400 2,400 Climbing Denver TRACON
11:52AM 40.0667 -104.6500 11° North 267 307 11,700 2,340 Climbing Denver TRACON
11:53AM 40.1333 -104.6333 11° North 283 326 14,100 2,340 Climbing Denver TRACON
11:54AM 40.2167 -104.6333 360° North 325 374 16,400 2,340 Climbing Denver TRACON
11:55AM 40.2681 -104.6481 348° North 318 366 17,700 2,340 Climbing Denver Center
11:56AM 40.3636 -104.6608 354° North 325 374 20,100 2,220 Climbing Denver Center
11:57AM 40.4517 -104.7033 340° North 338 389 22,300 1,980 Climbing Denver Center
11:58AM 40.5489 -104.7511 340° North 341 392 24,300 1,800 Climbing Denver Center
11:59AM 40.6392 -104.7961 339° North 348 400 26,100 1,620 Climbing Denver Center
12:00PM 40.7269 -104.8411 339° North 326 375 27,700 900 Climbing Denver Center
12:01PM 40.8047 -104.8761 341° North 300 345 28,000 120 Climbing Denver Center
12:02PM 40.8850 -104.9139 340° North 306 352 28,000  Level Denver Center
12:03PM 40.9669 -104.9567 338° Northwest 316 364 28,000  Level Denver Center
12:04PM 41.0542 -105.0272 329° Northwest 338 389 28,000  Level Denver Center
12:05PM 41.0650 -105.1681 276° West 352 405 28,000  Level Denver Center
12:06PM 41.0242 -105.2814 245° Southwest 358 412 28,000  Level Denver Center
12:07PM 40.9619 -105.3917 233° Southwest 370 426 28,000  Level Denver Center
12:08PM 40.8992 -105.5011 233° Southwest 373 429 28,000  Level Denver Center
12:09PM 40.8375 -105.6133 234° Southwest 378 435 28,000  Level Denver Center
12:10PM 40.7633 -105.7461 234° Southwest 376 433 28,000  Level Denver Center
12:11PM 40.7019 -105.8539 233° Southwest 370 426 28,000  Level Denver Center
12:12PM 40.6414 -105.9614 233° Southwest 367 422 28,000  Level Denver Center
12:13PM 40.5808 -106.0664 233° Southwest 363 418 28,000  Level Denver Center
12:14PM 40.5208 -106.1722 233° Southwest 356 410 28,000  Level Denver Center
12:15PM 40.4539 -106.2869 233° Southwest 354 407 28,000  Level Denver Center
12:16PM 40.3986 -106.3847 233° Southwest 350 403 28,000  Level Denver Center
12:17PM 40.3325 -106.4972 232° Southwest 348 400 28,000  Level Denver Center
12:18PM 40.2714 -106.6053 233° Southwest 348 400 28,000  Level Denver Center
12:19PM 40.2119 -106.7053 232° Southwest 344 396 28,000  Level Denver Center
12:21PM 40.1572 -106.7986 233° Southwest 338 389 28,000  Level Denver Center
12:22PM 40.0939 -106.9089 233° Southwest 339 390 28,000  Level Denver Center
12:23PM 40.0392 -107.0019 232° Southwest 337 388 28,000  Level Denver Center
12:24PM 39.9761 -107.1092 233° Southwest 335 386 28,000  Level Denver Center
12:25PM 39.9178 -107.2103 233° Southwest 334 384 28,000  Level Denver Center
12:26PM 39.8586 -107.3078 232° Southwest 333 383 28,000  Level Denver Center
12:27PM 39.8050 -107.3986 232° Southwest 332 382 28,000  Level Denver Center
12:28PM 39.7500 -107.4894 232° Southwest 333 383 28,000  Level Denver Center
12:29PM 39.6867 -107.5975 233° Southwest 335 386 28,000  Level Denver Center
12:30PM 39.6306 -107.6875 231° Southwest 333 383 28,000  Level Denver Center
12:31PM 39.5669 -107.7947 232° Southwest 336 387 28,000  Level Denver Center
12:32PM 39.5125 -107.8861 232° Southwest 334 384 28,000  Level Denver Center
12:33PM 39.4469 -107.9925 231° Southwest 335 386 28,000 -180 Level Denver Center
12:34PM 39.3928 -108.0850 233° Southwest 335 386 27,700 -540 Descending Denver Center
12:35PM 39.3289 -108.1894 232° Southwest 330 380 27,000 -1,620 Descending Denver Center
12:36PM 39.2797 -108.2814 235° Southwest 324 373 24,400 -2,880 Descending Denver Center
12:37PM 39.2336 -108.3808 239° Southwest 321 369 21,100 -3,240 Descending Denver Center
12:38PM 39.2258 -108.4875 265° West 289 333 17,800 -3,240 Descending Denver Center
12:39PM 39.2750 -108.5642 310° West 278 320 14,500 -3,360 Descending Denver Center
12:40PM 39.3017 -108.6581 290° West 274 315 10,900 -2,640 Descending Denver Center
12:41PM 39.2550 -108.7147 223° Southwest 274 315 9,100 -1,680 Descending Denver Center
12:42PM 39.2025 -108.6703 147° Southeast 215 247 7,500 -1,260 Descending Denver Center
12:43PM 39.1772 -108.6225 124° Southeast 165 190 6,600 -1,020 Descending Denver Center
12:44PM 39.1511 -108.5750 125° Southeast 153 176 5,500 -900 Descending Denver Center
12:45PM 39.1322 -108.5392 124° Southeast 146 168 4,800 -720 Descending Denver Center
12:47PM 39.1224 -108.5267 North  Level Estimated